Weather at Flugplatz Hausen am Albis

Public forecast

Using degrees Celsius for public forecast. Weather courtesy of forecast.io.

Closest aviation weather report (METAR) to Flugplatz Hausen am Albis

Closest report is Dübendorf Air Base, 11.0 nm (20.4 km) NNE. Retrieved 2022/06/30 14:20 UTC (0 seconds ago):

LSMD 301420Z 15004KT 080V230 CAVOK 28/17 Q1011 RMK BLU

Closest aviation forecast (TAF) to Flugplatz Hausen am Albis

Closest forecast is Dübendorf Air Base, 11.0 nm (20.4 km) NNE. Retrieved 2022/06/30 10:00 UTC (4 hours ago):

TAF LSMD 300925Z 3010/0116 VRB02KT CAVOK BECMG 3011/3014 9999 FEW050 TEMPO 3013/0109 27015G25KT SHRA FEW050TCU PROB40 TEMPO 3013/3021 24015G35KT 4000 TSRA SCT040CB